Time;durP1;ratioP1;P1;durP2;ratioP2;P2;SDS_P1;SDS_P2;PMS_P1;PMS_P2;Temp;Humidity;BMP_temperature;BMP_pressure;BME280_temperature;BME280_humidity;BME280_pressure;Samples;Min_cycle;Max_cycle;Signal;HPM_P1;HPM_P2
2022/11/03 00:01:47;;;;;;;10.18;6.53;;;18.90;92.70;;;18.86;64.69;99446.47;5065859;28;20395;-77
2022/11/03 00:04:16;;;;;;;9.13;5.80;;;18.90;92.60;;;18.88;64.39;99455.22;5050399;28;20045;-77
2022/11/03 00:06:44;;;;;;;9.35;6.47;;;18.90;92.60;;;18.91;65.20;99459.28;5037854;28;20625;-77
2022/11/03 00:09:13;;;;;;;8.90;5.85;;;18.90;92.70;;;18.90;65.51;99458.44;5064544;28;20033;-77
2022/11/03 00:11:40;;;;;;;14.93;7.22;;;18.90;92.80;;;18.86;65.39;99463.78;5049472;28;20052;-77
2022/11/03 00:14:08;;;;;;;9.77;6.63;;;18.80;92.70;;;18.86;65.06;99465.72;5051534;28;20512;-77
2022/11/03 00:16:34;;;;;;;8.82;5.68;;;18.90;92.70;;;18.84;64.63;99463.28;5042813;28;20538;-77
2022/11/03 00:19:00;;;;;;;10.00;5.53;;;18.80;92.60;;;18.84;64.61;99470.72;5049285;28;20091;-77
2022/11/03 00:21:26;;;;;;;13.48;7.22;;;18.80;92.60;;;18.87;64.97;99465.38;5056971;28;20028;-77
2022/11/03 00:23:53;;;;;;;9.95;6.65;;;18.90;92.70;;;18.84;65.47;99463.28;5032290;28;20451;-77
2022/11/03 00:26:23;;;;;;;10.20;6.00;;;18.80;92.80;;;18.87;65.43;99459.88;5039646;28;20139;-76
2022/11/03 00:28:59;;;;;;;9.52;6.55;;;18.80;92.80;;;18.80;65.21;99459.53;5018250;28;20761;-77
2022/11/03 00:31:30;;;;;;;10.48;6.80;;;18.80;92.60;;;18.79;64.96;99455.16;5030114;28;20037;-77
2022/11/03 00:33:57;;;;;;;10.90;6.32;;;18.80;92.60;;;18.78;64.78;99461.78;5060313;28;20040;-77
2022/11/03 00:36:28;;;;;;;13.93;7.68;;;18.80;92.60;;;18.77;64.79;99454.63;5052249;28;20098;-77
2022/11/03 00:38:54;;;;;;;8.50;6.10;;;18.80;92.60;;;18.77;65.86;99453.84;5054075;28;20040;-77
2022/11/03 00:41:20;;;;;;;7.93;6.00;;;18.80;92.80;;;18.79;65.99;99457.91;5059199;28;20066;-77
2022/11/03 00:43:47;;;;;;;11.95;6.82;;;18.80;92.90;;;18.78;65.53;99445.28;5045294;28;20468;-77
2022/11/03 00:46:13;;;;;;;11.20;6.07;;;18.80;92.80;;;18.76;65.21;99455.78;5044640;28;20082;-77
2022/11/03 00:48:40;;;;;;;10.52;6.20;;;18.80;92.60;;;18.76;65.05;99457.72;5038534;28;20049;-77
2022/11/03 00:51:13;;;;;;;9.77;6.45;;;18.70;92.60;;;18.76;64.75;99458.53;5047676;28;20087;-77
2022/11/03 00:53:47;;;;;;;10.15;6.53;;;18.70;92.60;;;18.77;64.89;99459.34;5051409;28;20104;-77
2022/11/03 00:56:19;;;;;;;9.93;6.38;;;18.70;92.60;;;18.81;65.37;99460.34;5070105;28;20392;-77
2022/11/03 00:58:45;;;;;;;8.93;6.03;;;18.70;92.70;;;18.81;65.37;99465.84;5040052;28;20041;-77
2022/11/03 01:01:19;;;;;;;9.18;6.50;;;18.70;92.80;;;18.76;65.01;99469.53;5032562;28;20502;-77
2022/11/03 01:06:51;;;;;;;8.20;5.72;;;18.70;92.70;;;18.75;64.59;99472.53;5052273;28;20394;-77
2022/11/03 01:09:21;;;;;;;10.40;6.35;;;18.70;92.60;;;18.75;65.08;99470.66;5064986;28;20049;-77
2022/11/03 01:12:09;;;;;;;10.63;6.63;;;18.70;92.80;;;18.78;65.12;99474.72;5035846;28;20088;-77
2022/11/03 01:14:41;;;;;;;10.10;7.00;;;18.70;92.70;;;18.76;65.45;99472.28;5033533;28;20044;-77
2022/11/03 01:17:18;;;;;;;7.82;6.45;;;18.70;92.80;;;18.74;64.93;99477.22;5068371;28;20049;-77
2022/11/03 01:19:44;;;;;;;10.15;6.40;;;18.70;92.70;;;18.71;64.92;99469.59;5050935;28;20041;-77
2022/11/03 01:22:10;;;;;;;10.48;6.70;;;18.70;92.60;;;18.71;64.97;99469.59;5069979;28;20037;-77
2022/11/03 01:24:37;;;;;;;11.77;6.95;;;18.70;92.70;;;18.69;64.90;99477.34;5036520;28;20047;-77
2022/11/03 01:27:03;;;;;;;8.50;6.38;;;18.60;92.60;;;18.70;65.15;99475.41;5054104;28;20045;-76
2022/11/03 01:29:29;;;;;;;9.57;6.85;;;18.70;92.70;;;18.71;65.38;99477.06;5049142;28;20044;-77
2022/11/03 01:31:56;;;;;;;9.38;5.82;;;18.70;92.70;;;18.67;65.58;99476.84;5049999;28;20036;-77
2022/11/03 01:34:22;;;;;;;12.18;6.60;;;18.60;92.80;;;18.68;65.35;99472.19;5054781;28;20048;-77
2022/11/03 01:36:48;;;;;;;11.48;6.82;;;18.60;92.70;;;18.64;65.22;99474.72;5065244;28;20098;-77
2022/11/03 01:39:16;;;;;;;10.73;5.78;;;18.60;92.70;;;18.59;65.07;99474.84;5057725;28;20040;-77
2022/11/03 01:41:45;;;;;;;9.52;6.47;;;18.60;92.60;;;18.63;65.55;99481.34;5064585;28;20048;-76
2022/11/03 01:44:10;;;;;;;8.95;6.53;;;18.60;92.80;;;18.68;65.35;99477.69;5056756;28;20048;-77
2022/11/03 01:47:12;;;;;;;10.13;6.93;;;18.60;92.70;;;18.71;65.76;99479.78;5062251;28;20097;-77
2022/11/03 01:49:54;;;;;;;9.90;6.32;;;18.70;92.80;;;18.62;65.16;99476.97;5066170;28;20725;-77
2022/11/03 01:52:53;;;;;;;10.85;5.63;;;18.60;92.60;;;18.63;65.15;99468.41;5030342;28;20051;-77
2022/11/03 01:55:22;;;;;;;7.57;6.03;;;18.60;92.60;;;18.62;64.88;99460.47;5029306;28;20057;-77
2022/11/03 01:57:57;;;;;;;10.93;6.70;;;18.60;92.70;;;18.61;64.77;99464.34;5040596;28;20051;-77
2022/11/03 02:00:23;;;;;;;13.60;6.63;;;18.60;92.70;;;18.69;65.14;99462.81;5068463;28;20059;-76
2022/11/03 02:02:49;;;;;;;9.38;5.93;;;18.60;92.70;;;18.60;65.41;99462.75;5050117;28;20037;-76
2022/11/03 02:05:15;;;;;;;9.57;6.47;;;18.60;92.80;;;18.59;65.29;99466.59;5036084;28;20052;-77
2022/11/03 02:07:56;;;;;;;12.00;8.02;;;18.60;92.80;;;18.59;65.04;99470.16;5048163;28;20132;-77
2022/11/03 02:10:23;;;;;;;8.50;6.37;;;18.50;92.70;;;18.60;65.01;99465.50;5056155;28;20683;-77
2022/11/03 02:12:49;;;;;;;10.60;6.70;;;18.50;92.70;;;18.57;64.87;99463.34;5030487;28;20529;-76
2022/11/03 02:15:16;;;;;;;11.50;6.63;;;18.50;92.70;;;18.57;65.06;99471.59;5048907;28;20877;-77
2022/11/03 02:17:42;;;;;;;10.98;6.55;;;18.50;92.70;;;18.59;65.44;99472.09;5042405;28;20051;-77
2022/11/03 02:20:17;;;;;;;11.73;6.25;;;18.50;92.70;;;18.59;65.48;99467.41;5032044;28;20044;-77
2022/11/03 02:23:10;;;;;;;7.30;5.55;;;18.50;92.70;;;18.56;65.13;99464.47;5023009;28;20633;-76
2022/11/03 02:25:39;;;;;;;10.38;6.68;;;18.60;92.80;;;18.58;64.92;99464.97;5059698;28;20044;-76
2022/11/03 02:28:05;;;;;;;8.93;5.95;;;18.50;92.70;;;18.55;64.75;99471.91;5054297;28;20033;-77
2022/11/03 02:30:49;;;;;;;10.23;6.63;;;18.50;92.70;;;18.54;65.37;99467.53;5035717;28;20053;-76
2022/11/03 02:33:53;;;;;;;8.05;6.20;;;18.50;92.70;;;18.57;65.49;99468.84;5048412;28;20468;-76
2022/11/03 02:36:22;;;;;;;8.43;6.68;;;18.50;92.70;;;18.58;65.19;99473.22;5053309;28;20565;-77
2022/11/03 02:38:56;;;;;;;9.63;6.35;;;18.50;92.70;;;18.51;65.13;99476.38;5032247;28;20047;-76
2022/11/03 02:41:23;;;;;;;10.15;6.78;;;18.50;92.70;;;18.52;65.07;99472.53;5049734;28;20044;-77
2022/11/03 02:43:49;;;;;;;9.45;5.93;;;18.50;92.70;;;18.47;65.18;99480.91;5064435;28;20182;-76
2022/11/03 02:46:15;;;;;;;8.18;6.15;;;18.40;92.70;;;18.51;65.47;99481.06;5020392;28;20036;-76
2022/11/03 02:48:41;;;;;;;8.75;6.45;;;18.40;92.80;;;18.49;65.79;99475.88;5051764;28;20357;-77
2022/11/03 02:51:07;;;;;;;10.35;6.40;;;18.40;92.80;;;18.54;65.41;99475.75;5033101;28;20041;-77
2022/11/03 02:53:38;;;;;;;8.52;5.70;;;18.40;92.70;;;18.47;65.46;99478.16;5047763;28;20399;-77
2022/11/03 02:56:23;;;;;;;9.43;6.67;;;18.40;92.80;;;18.47;65.21;99480.91;5053080;28;20836;-76
2022/11/03 02:59:00;;;;;;;10.85;7.72;;;18.40;92.70;;;18.46;65.01;99482.00;5036975;28;20081;-77
2022/11/03 03:01:47;;;;;;;9.75;6.07;;;18.40;92.70;;;18.46;64.82;99486.69;5052893;28;20071;-77
2022/11/03 03:04:40;;;;;;;11.10;6.90;;;18.40;92.70;;;18.48;65.28;99496.25;5065292;28;20541;-77
2022/11/03 03:07:11;;;;;;;10.13;6.70;;;18.40;92.70;;;18.46;65.40;99492.19;5065396;28;20047;-77
2022/11/03 03:09:45;;;;;;;8.57;6.53;;;18.40;92.70;;;18.47;65.22;99491.03;5037591;28;20033;-76
2022/11/03 03:12:11;;;;;;;10.35;6.50;;;18.40;92.70;;;18.46;64.88;99493.00;5039196;28;20043;-77
2022/11/03 03:14:38;;;;;;;9.02;5.25;;;18.40;92.70;;;18.41;65.01;99499.41;5035462;28;20036;-76
2022/11/03 03:17:09;;;;;;;8.52;6.40;;;18.40;92.70;;;18.43;64.89;99490.88;5054582;28;20588;-76
2022/11/03 03:20:02;;;;;;;10.10;6.93;;;18.40;92.70;;;18.44;65.53;99490.56;5056624;28;20044;-76
2022/11/03 03:22:37;;;;;;;10.00;6.68;;;18.40;92.80;;;18.49;65.03;99492.38;5040381;28;20041;-77
2022/11/03 03:25:29;;;;;;;9.85;6.13;;;18.40;92.70;;;18.45;65.37;99491.38;5055006;28;20036;-77
2022/11/03 03:28:08;;;;;;;8.20;6.00;;;18.40;92.70;;;18.37;65.16;99492.91;5044483;28;20073;-76
2022/11/03 03:30:34;;;;;;;11.13;6.25;;;18.30;93.00;;;18.42;65.33;99498.31;5035576;28;20055;-76
2022/11/03 03:33:00;;;;;;;9.57;6.18;;;18.30;92.70;;;18.40;64.75;99488.75;5019780;28;20041;-77
2022/11/03 03:35:29;;;;;;;6.80;5.80;;;18.30;92.70;;;18.40;65.22;99484.06;5034563;28;20473;-77
2022/11/03 03:38:00;;;;;;;8.63;6.25;;;18.30;92.70;;;18.42;64.98;99487.31;5021336;28;20072;-77
2022/11/03 03:40:33;;;;;;;9.45;6.15;;;18.30;92.60;;;18.42;65.40;99487.31;5034868;28;20045;-77
2022/11/03 03:43:00;;;;;;;7.53;5.97;;;18.30;92.80;;;18.38;64.91;99488.22;5046916;28;20039;-77
2022/11/03 03:45:26;;;;;;;11.77;6.72;;;18.30;92.70;;;18.38;64.92;99493.72;5035911;28;20074;-77
2022/11/03 03:47:53;;;;;;;8.40;6.25;;;18.30;92.70;;;18.34;64.93;99487.22;5056159;28;20041;-76
2022/11/03 03:50:20;;;;;;;9.10;6.75;;;18.20;92.60;;;18.35;65.06;99486.09;5041481;28;20115;-76
2022/11/03 03:52:47;;;;;;;8.52;6.68;;;18.20;92.70;;;18.36;64.80;99487.72;5050218;28;20522;-77
2022/11/03 03:55:17;;;;;;;7.70;6.15;;;18.20;92.70;;;18.34;64.33;99485.31;5058304;28;20040;-76
2022/11/03 03:57:43;;;;;;;8.48;6.35;;;18.20;92.60;;;18.35;63.64;99486.91;5033941;28;20486;-76
2022/11/03 04:00:12;;;;;;;10.07;6.95;;;18.20;92.40;;;18.34;63.71;99489.97;5037083;28;20044;-76
2022/11/03 04:02:38;;;;;;;9.40;6.53;;;18.20;92.40;;;18.34;63.56;99482.56;5022216;28;20044;-76
2022/11/03 04:05:05;;;;;;;8.20;6.30;;;18.20;92.40;;;18.34;63.86;99484.47;5012394;28;20382;-76
2022/11/03 04:07:46;;;;;;;8.30;6.13;;;18.30;92.40;;;18.33;64.71;99480.91;5053286;28;20546;-76
2022/11/03 04:10:13;;;;;;;9.13;5.90;;;18.20;92.60;;;18.30;64.16;99478.78;5041112;28;20070;-77
2022/11/03 04:23:41;;;;;;;8.77;6.38;;;18.20;92.40;;;18.32;64.48;99481.22;5042606;28;20484;-77
2022/11/03 04:26:14;;;;;;;11.13;6.55;;;18.20;92.60;;;18.24;63.89;99471.75;5052161;28;20054;-77
2022/11/03 04:28:41;;;;;;;8.23;6.40;;;18.20;92.40;;;18.27;63.00;99476.66;5051327;28;20067;-79
2022/11/03 04:31:14;;;;;;;9.68;6.63;;;18.10;92.20;;;18.28;62.85;99474.72;5050740;28;20040;-78
2022/11/03 04:33:41;;;;;;;9.68;7.28;;;18.10;92.10;;;18.28;62.33;99471.97;5047394;28;20036;-79
2022/11/03 04:36:22;;;;;;;8.40;6.13;;;18.10;92.10;;;18.31;63.19;99465.88;5030455;28;20072;-78
2022/11/03 04:38:49;;;;;;;9.85;6.60;;;18.10;92.30;;;18.28;63.17;99464.53;5038123;28;20488;-78
2022/11/03 04:41:20;;;;;;;8.73;6.15;;;18.10;92.20;;;18.28;63.26;99461.81;5037692;28;20045;-78
2022/11/03 04:43:46;;;;;;;8.85;7.05;;;18.20;92.30;;;18.24;62.41;99463.53;5034202;28;20040;-78
2022/11/03 04:46:15;;;;;;;9.75;6.80;;;18.20;92.00;;;18.22;62.33;99463.03;5031733;28;20457;-79
2022/11/03 04:48:42;;;;;;;9.40;6.28;;;18.20;92.10;;;18.23;62.32;99467.41;5017319;28;20076;-79
2022/11/03 04:51:16;;;;;;;10.50;7.05;;;18.10;92.00;;;18.20;62.50;99470.78;5051710;28;20041;-78
2022/11/03 04:54:26;;;;;;;10.90;6.75;;;18.10;92.10;;;18.27;63.08;99468.44;5031280;28;20136;-79
2022/11/03 04:56:53;;;;;;;10.38;7.22;;;18.10;92.20;;;18.32;62.35;99465.56;5053823;28;20096;-78
2022/11/03 04:59:19;;;;;;;10.50;6.75;;;18.20;92.00;;;18.23;62.51;99461.91;5035707;28;20694;-78
2022/11/03 05:01:45;;;;;;;9.07;6.63;;;18.10;92.40;;;18.24;61.84;99463.53;5064452;28;20037;-78
2022/11/03 05:04:16;;;;;;;9.35;6.53;;;18.10;91.90;;;18.17;61.82;99457.66;5050840;28;20055;-78
2022/11/03 05:06:51;;;;;;;10.85;6.40;;;18.10;91.80;;;18.21;61.53;99458.66;5024823;28;20040;-78
2022/11/03 05:09:26;;;;;;;9.18;7.10;;;18.10;91.80;;;18.25;61.93;99464.38;5053602;28;20049;-77
2022/11/03 05:11:53;;;;;;;10.13;6.43;;;18.10;91.90;;;18.22;62.72;99460.28;5067338;28;20452;-77
2022/11/03 05:14:26;;;;;;;11.07;6.72;;;18.20;92.00;;;18.21;62.08;99450.41;5063274;28;20090;-77
2022/11/03 05:16:53;;;;;;;9.77;6.68;;;18.10;91.90;;;18.17;61.60;99452.19;5049681;28;20099;-77
2022/11/03 05:19:27;;;;;;;9.18;6.20;;;18.20;91.70;;;18.19;61.18;99460.88;5035710;28;20042;-78
2022/11/03 05:21:54;;;;;;;8.35;6.75;;;18.10;91.70;;;18.16;60.99;99456.81;5039154;28;20052;-78
2022/11/03 05:24:20;;;;;;;11.13;6.03;;;18.10;91.70;;;18.21;61.74;99456.72;5048621;28;20062;-78
2022/11/03 05:26:47;;;;;;;8.75;6.55;;;18.10;92.00;;;18.23;61.84;99459.16;5036627;28;20037;-78
2022/11/03 05:29:25;;;;;;;10.27;6.75;;;18.10;91.90;;;18.22;62.01;99454.81;5057501;28;20080;-78
2022/11/03 05:31:52;;;;;;;9.02;6.32;;;18.10;92.00;;;18.23;61.71;99456.41;5024237;28;20547;-78
2022/11/03 05:34:33;;;;;;;10.77;7.28;;;18.10;91.80;;;18.23;61.22;99459.97;5046827;28;20041;-78
2022/11/03 05:37:05;;;;;;;10.93;7.50;;;18.10;91.70;;;18.17;61.13;99460.41;5063763;28;20040;-78
2022/11/03 05:39:37;;;;;;;10.68;7.45;;;18.10;91.70;;;18.21;61.00;99459.47;5051427;28;20045;-78
2022/11/03 05:42:38;;;;;;;8.30;6.90;;;18.10;91.70;;;18.19;62.00;99455.41;5045943;28;20423;-78
2022/11/03 05:45:28;;;;;;;9.18;6.75;;;18.00;92.00;;;18.25;61.90;99450.63;5025060;28;20061;-78
2022/11/03 05:47:54;;;;;;;9.63;6.00;;;18.00;92.10;;;18.22;61.21;99452.06;5060734;28;20044;-78
2022/11/03 05:50:30;;;;;;;7.88;6.38;;;18.00;91.90;;;18.25;61.09;99445.94;5046181;28;20036;-78
2022/11/03 05:53:34;;;;;;;11.82;6.45;;;18.10;91.70;;;18.25;60.97;99459.69;5022635;28;20090;-78
2022/11/03 05:56:02;;;;;;;9.40;7.10;;;18.10;91.70;;;18.19;61.18;99464.47;5047211;28;20590;-78
2022/11/03 05:58:38;;;;;;;14.13;7.43;;;18.10;92.00;;;18.19;60.97;99466.38;5010592;28;20044;-78
2022/11/03 06:01:15;;;;;;;9.95;6.97;;;18.10;91.70;;;18.26;60.91;99464.03;5037867;28;20396;-78
2022/11/03 06:03:41;;;;;;;10.73;6.75;;;18.10;91.70;;;18.30;61.18;99467.00;5039882;28;20476;-78
2022/11/03 06:06:35;;;;;;;8.98;6.57;;;18.20;91.90;;;18.27;61.38;99468.44;5046337;28;20048;-77
2022/11/03 06:09:02;;;;;;;8.23;5.60;;;18.10;92.00;;;18.31;61.24;99463.91;5029090;28;20416;-77
2022/11/03 06:11:35;;;;;;;11.23;7.00;;;18.10;92.30;;;18.38;60.91;99469.00;5042911;28;20040;-78
2022/11/03 06:14:00;;;;;;;;;;;18.20;91.80;;;18.37;60.71;99473.69;5022251;28;20048;-78
2022/11/03 06:16:42;;;;;;;9.05;6.82;;;18.20;91.70;;;18.40;60.50;99477.75;5045384;28;19924;-77
2022/11/03 06:19:27;;;;;;;7.35;5.97;;;18.20;91.70;;;18.42;60.71;99475.50;5061915;28;20423;-77
2022/11/03 06:21:57;;;;;;;9.00;6.43;;;18.20;91.80;;;18.41;61.06;99469.19;5059726;28;20510;-77
2022/11/03 06:24:28;;;;;;;8.68;5.97;;;18.20;91.70;;;18.41;61.18;99471.94;5029135;28;20483;-76
2022/11/03 06:26:55;;;;;;;7.88;6.20;;;18.20;91.90;;;18.41;60.48;99477.44;5028181;28;20037;-77
2022/11/03 06:29:21;;;;;;;8.68;6.45;;;18.30;91.80;;;18.48;60.38;99478.97;5045399;28;20075;-77
2022/11/03 06:31:49;;;;;;;8.55;6.35;;;18.20;91.70;;;18.53;60.21;99476.91;5029685;28;20048;-77
2022/11/03 06:34:24;;;;;;;10.90;6.43;;;18.30;91.80;;;18.57;60.12;99482.56;5014466;28;20618;-77
2022/11/03 06:36:50;;;;;;;9.90;7.35;;;18.30;91.80;;;18.55;60.47;99476.59;5063528;28;20532;-76
2022/11/03 06:39:24;;;;;;;13.13;7.40;;;18.30;91.80;;;18.56;60.66;99487.25;5019837;28;20040;-77
2022/11/03 06:41:50;;;;;;;13.50;7.82;;;18.30;91.90;;;18.60;60.31;99477.28;5034300;28;20037;-76
2022/11/03 06:44:29;;;;;;;10.52;7.30;;;18.30;91.80;;;18.63;59.93;99476.66;5031069;28;20068;-77
2022/11/03 06:46:58;;;;;;;13.02;8.73;;;18.30;91.80;;;18.68;59.91;99483.97;5042240;28;20511;-77
2022/11/03 06:49:34;;;;;;;11.48;7.20;;;18.40;91.80;;;18.67;59.85;99482.34;5029265;28;20064;-76
2022/11/03 06:52:13;;;;;;;12.18;7.57;;;18.40;91.80;;;18.72;59.96;99487.72;5044732;28;20045;-77
2022/11/03 06:54:39;;;;;;;13.10;8.23;;;18.40;91.80;;;18.76;60.05;99490.69;5034022;28;20263;-77
2022/11/03 06:57:11;;;;;;;13.07;8.43;;;18.40;91.80;;;18.77;59.71;99476.63;5062003;28;20044;-76
2022/11/03 06:59:37;;;;;;;15.55;8.02;;;18.50;91.90;;;18.77;59.78;99484.06;5035313;28;20047;-77
2022/11/03 07:02:19;;;;;;;17.38;8.65;;;18.40;91.80;;;18.80;59.27;99481.53;5050767;28;20041;-77
2022/11/03 07:04:47;;;;;;;15.07;8.65;;;18.50;91.90;;;18.85;59.41;99486.06;5062598;28;20445;-77
2022/11/03 07:07:13;;;;;;;13.80;8.48;;;18.50;91.80;;;18.89;59.40;99483.53;5031342;28;20045;-77
2022/11/03 07:09:39;;;;;;;14.02;9.15;;;18.60;91.90;;;18.93;59.55;99492.75;5042954;28;20045;-76
2022/11/03 07:12:07;;;;;;;11.18;7.97;;;18.60;91.90;;;18.92;59.68;99483.69;5042638;28;20541;-76
2022/11/03 07:14:34;;;;;;;15.07;8.57;;;18.60;91.90;;;18.96;59.19;99475.66;5030168;28;20041;-76
2022/11/03 07:17:03;;;;;;;16.30;9.30;;;18.60;91.90;;;19.02;59.03;99471.63;5013405;28;20527;-76
2022/11/03 07:19:39;;;;;;;16.08;9.02;;;18.60;91.80;;;19.00;58.93;99476.63;5004372;28;20443;-76
2022/11/03 07:22:13;;;;;;;13.35;8.95;;;18.60;91.80;;;19.07;58.84;99468.75;5026195;28;20151;-77
2022/11/03 07:24:43;;;;;;;20.83;9.68;;;18.70;91.80;;;19.08;59.20;99462.97;5052883;28;20036;-76
2022/11/03 07:27:20;;;;;;;15.65;8.40;;;18.70;91.90;;;19.10;58.99;99459.88;5031996;28;20044;-77
2022/11/03 07:29:47;;;;;;;20.92;9.18;;;18.70;91.80;;;19.11;58.96;99453.28;5050968;28;20032;-77
2022/11/03 07:32:19;;;;;;;17.23;9.50;;;18.70;91.80;;;19.14;58.87;99446.34;5057843;28;20048;-76
2022/11/03 07:34:46;;;;;;;14.65;8.63;;;18.70;91.80;;;19.18;58.90;99447.31;5035441;28;20465;-77
2022/11/03 07:37:23;;;;;;;14.90;9.05;;;18.70;91.90;;;19.21;58.81;99446.66;5055023;28;20049;-77
2022/11/03 07:39:50;;;;;;;14.52;8.88;;;18.80;91.90;;;19.25;58.64;99442.19;5029287;28;20043;-77
2022/11/03 07:42:21;;;;;;;16.17;9.68;;;18.80;91.90;;;19.29;58.61;99443.97;5026780;28;20044;-76
2022/11/03 07:44:47;;;;;;;17.25;8.32;;;18.80;91.90;;;19.28;58.61;99436.88;5032593;28;20040;-76
2022/11/03 07:47:19;;;;;;;21.00;10.13;;;18.80;92.20;;;19.29;58.50;99426.69;5018873;28;20115;-76
2022/11/03 07:49:45;;;;;;;17.95;9.43;;;18.90;91.80;;;19.35;58.23;99435.59;5019088;28;20060;-77
2022/11/03 07:52:13;;;;;;;14.85;9.60;;;18.90;91.90;;;19.33;58.27;99424.09;5035479;28;20044;-76
2022/11/03 07:54:39;;;;;;;19.83;9.30;;;18.90;91.80;;;19.31;58.55;99429.94;5018665;28;20090;-76
2022/11/03 07:57:20;;;;;;;21.60;10.82;;;18.90;91.80;;;19.39;58.42;99426.41;5031404;28;20369;-76
2022/11/03 07:59:51;;;;;;;16.38;9.20;;;18.90;91.80;;;19.42;58.10;99413.94;5053095;28;20044;-77
2022/11/03 08:03:12;;;;;;;17.30;9.73;;;19.00;91.90;;;19.42;58.02;99408.44;5050423;28;20051;-76
2022/11/03 08:05:38;;;;;;;16.33;9.70;;;18.90;91.80;;;19.45;58.14;99405.06;5039916;28;20485;-76
2022/11/03 08:08:04;;;;;;;16.65;8.65;;;19.00;91.80;;;19.45;58.11;99407.81;5020608;28;20037;-76
2022/11/03 08:10:30;;;;;;;12.68;8.32;;;19.00;91.80;;;19.51;57.78;99401.84;5064862;28;20118;-76
2022/11/03 08:12:57;;;;;;;18.10;9.60;;;19.10;91.80;;;19.49;57.90;99395.03;5066687;28;20048;-76
2022/11/03 08:15:23;;;;;;;20.23;9.65;;;19.10;91.80;;;19.52;57.90;99395.22;5068515;28;20118;-76
2022/11/03 08:17:50;;;;;;;14.45;8.27;;;19.10;91.80;;;19.53;58.04;99394.06;5051363;28;20496;-77
2022/11/03 08:20:16;;;;;;;17.85;10.18;;;19.20;91.80;;;19.58;57.73;99389.56;5037224;28;20045;-76
2022/11/03 08:22:42;;;;;;;16.75;9.25;;;19.20;91.70;;;19.56;57.73;99381.59;5038498;28;20097;-77
2022/11/03 08:25:08;;;;;;;14.38;9.25;;;19.20;91.80;;;19.59;57.66;99386.50;5036135;28;20044;-77
2022/11/03 08:27:35;;;;;;;14.20;9.07;;;19.20;91.70;;;19.60;57.77;99381.81;5062947;28;20096;-77
2022/11/03 08:30:01;;;;;;;14.52;8.98;;;19.20;91.70;;;19.61;57.61;99378.72;5050219;28;20098;-77
2022/11/03 08:32:27;;;;;;;17.17;9.48;;;19.20;91.80;;;19.61;57.78;99378.72;5034727;28;20048;-76
2022/11/03 08:34:53;;;;;;;15.85;9.25;;;19.20;91.80;;;19.63;57.61;99375.66;5049590;28;20045;-76
2022/11/03 08:37:19;;;;;;;17.90;9.00;;;19.20;91.70;;;19.64;57.80;99360.75;5018228;28;20063;-76
2022/11/03 08:39:45;;;;;;;17.05;9.55;;;19.30;91.70;;;19.66;57.42;99367.56;5046541;28;20051;-76
2022/11/03 08:42:14;;;;;;;15.43;8.00;;;19.30;91.70;;;19.68;57.32;99361.78;5032118;28;20052;-76
2022/11/03 08:44:40;;;;;;;14.57;8.18;;;19.30;91.70;;;19.69;57.22;99369.72;5033785;28;20048;-76
2022/11/03 08:47:06;;;;;;;18.25;10.38;;;19.40;91.70;;;19.71;57.35;99363.88;5047385;28;20082;-77
2022/11/03 08:49:33;;;;;;;15.80;8.85;;;19.40;91.70;;;19.76;57.45;99362.91;5046690;28;20522;-76
2022/11/03 08:51:59;;;;;;;16.30;9.13;;;19.40;91.70;;;19.78;57.39;99355.97;5051684;28;20036;-77
2022/11/03 08:54:25;;;;;;;17.20;8.68;;;19.40;91.60;;;19.78;57.33;99357.91;5032994;28;20055;-77
2022/11/03 08:56:51;;;;;;;19.20;9.70;;;19.40;91.60;;;19.78;57.28;99357.91;5034957;28;20048;-77
2022/11/03 08:59:17;;;;;;;14.15;8.77;;;19.40;91.60;;;19.75;57.53;99355.81;5059134;28;20049;-76
2022/11/03 09:01:44;;;;;;;19.95;10.10;;;19.40;91.60;;;19.81;56.95;99354.50;5048951;28;20543;-76
2022/11/03 09:04:10;;;;;;;16.63;9.45;;;19.40;91.70;;;19.83;57.27;99346.75;5063059;28;20468;-77
2022/11/03 09:06:36;;;;;;;19.17;9.10;;;19.50;91.70;;;19.84;57.51;99348.34;5064344;28;20043;-77
2022/11/03 09:09:02;;;;;;;15.63;9.20;;;19.50;91.70;;;19.86;57.18;99344.16;5058816;28;20074;-76
2022/11/03 09:11:28;;;;;;;16.65;9.60;;;19.50;91.70;;;19.82;57.10;99345.09;5037333;28;20055;-77
2022/11/03 09:13:56;;;;;;;14.02;8.50;;;19.50;91.60;;;19.86;57.10;99337.84;5033639;28;20491;-76
2022/11/03 09:16:22;;;;;;;15.10;8.65;;;19.50;91.60;;;19.87;57.08;99339.44;5046866;28;20044;-77
2022/11/03 09:18:48;;;;;;;16.52;9.55;;;19.50;91.60;;;19.93;57.00;99332.66;5033375;28;20047;-77
2022/11/03 09:21:15;;;;;;;16.52;9.32;;;19.50;91.70;;;19.95;57.14;99333.97;5035420;28;20098;-77
2022/11/03 09:23:41;;;;;;;14.85;9.32;;;19.60;91.70;;;19.90;57.06;99328.63;5037965;28;20040;-77
2022/11/03 09:26:07;;;;;;;17.88;9.10;;;19.60;91.60;;;19.94;57.07;99324.06;5047110;28;20040;-77
2022/11/03 09:28:33;;;;;;;15.93;8.52;;;19.60;91.60;;;19.95;56.83;99322.16;5045482;28;20044;-77
2022/11/03 09:30:59;;;;;;;17.08;8.70;;;19.60;91.60;;;19.94;56.96;99317.75;5032751;28;20051;-77
2022/11/03 09:33:26;;;;;;;15.15;9.50;;;19.60;91.60;;;19.94;57.09;99309.50;5061999;28;20044;-77
2022/11/03 09:35:52;;;;;;;15.55;8.73;;;19.70;91.60;;;19.96;57.11;99307.25;5045029;28;20518;-77
2022/11/03 09:38:18;;;;;;;19.00;8.75;;;19.60;91.60;;;19.98;56.82;99313.25;5038661;28;20040;-77
2022/11/03 09:40:44;;;;;;;16.55;9.02;;;19.60;91.60;;;19.99;57.00;99312.09;5040818;28;20036;-77
2022/11/03 09:43:10;;;;;;;16.77;10.20;;;19.70;91.60;;;20.01;56.58;99307.06;5061176;28;20440;-77
2022/11/03 09:45:38;;;;;;;13.43;8.45;;;19.70;91.60;;;20.00;56.90;99296.38;5031753;28;20050;-77
2022/11/03 09:48:04;;;;;;;19.35;9.45;;;19.60;91.60;;;19.99;56.83;99292.81;5047878;28;20488;-77
2022/11/03 09:50:30;;;;;;;13.73;8.25;;;19.60;91.50;;;20.04;56.62;99292.66;5031884;28;20041;-77
2022/11/03 09:52:58;;;;;;;15.07;7.85;;;19.70;91.60;;;20.05;56.77;99287.94;5012640;28;20049;-77
2022/11/03 09:55:25;;;;;;;17.13;8.68;;;19.70;91.60;;;20.06;56.72;99284.88;5050186;28;20032;-77
2022/11/03 09:57:58;;;;;;;14.35;8.65;;;19.70;91.50;;;20.07;56.79;99278.22;5030298;28;20052;-77
2022/11/03 10:00:25;;;;;;;13.15;7.78;;;19.80;91.50;;;20.08;56.45;99279.88;5043580;28;20044;-77
2022/11/03 10:02:53;;;;;;;15.23;8.32;;;19.70;91.50;;;20.09;56.47;99264.16;5019887;28;20067;-77
2022/11/03 10:05:25;;;;;;;14.77;8.73;;;19.80;91.50;;;20.11;56.46;99264.63;5028866;28;20051;-77
2022/11/03 10:07:52;;;;;;;15.48;8.05;;;19.80;91.50;;;20.12;56.27;99266.25;5048667;28;20517;-77
2022/11/03 10:10:19;;;;;;;13.05;8.48;;;19.80;91.40;;;20.16;56.51;99261.72;5033891;28;20075;-77
2022/11/03 10:12:46;;;;;;;15.95;8.95;;;19.80;91.40;;;20.13;56.13;99260.41;5048848;28;20037;-77
2022/11/03 10:15:16;;;;;;;13.73;7.22;;;19.90;91.40;;;20.13;56.22;99252.16;5042919;28;20063;-77
2022/11/03 10:17:43;;;;;;;12.93;7.38;;;19.90;91.40;;;20.16;56.14;99246.00;5035197;28;20421;-77
2022/11/03 10:20:14;;;;;;;11.30;7.65;;;19.90;91.30;;;20.19;56.17;99240.97;5037579;28;20123;-77
2022/11/03 10:22:44;;;;;;;12.43;7.93;;;19.90;91.30;;;20.17;56.26;99236.59;5033702;28;20045;-77
2022/11/03 10:25:41;;;;;;;13.98;8.52;;;19.90;91.40;;;20.20;56.37;99232.41;5047240;28;20040;-77
2022/11/03 10:28:25;;;;;;;14.20;8.45;;;19.90;91.40;;;20.22;56.01;99229.28;5065005;28;20907;-77
2022/11/03 10:31:07;;;;;;;12.55;7.90;;;19.90;91.30;;;20.24;56.12;99229.78;5033035;28;20037;-77
2022/11/03 10:33:37;;;;;;;12.45;8.07;;;19.90;91.30;;;20.24;55.88;99225.06;5013747;28;20040;-77
2022/11/03 10:36:15;;;;;;;14.27;8.32;;;20.00;91.30;;;20.25;55.98;99223.13;5047396;28;20052;-77
2022/11/03 10:38:42;;;;;;;12.52;7.18;;;20.00;91.20;;;20.25;56.03;99214.84;5060264;28;20381;-77
2022/11/03 10:41:13;;;;;;;12.13;7.55;;;20.00;91.20;;;20.29;55.84;99215.84;5028211;28;20041;-77
2022/11/03 10:43:41;;;;;;;14.85;8.88;;;20.00;91.20;;;20.26;55.82;99222.81;5061102;28;20041;-77
2022/11/03 10:46:14;;;;;;;13.02;7.55;;;20.00;91.30;;;20.28;55.81;99219.75;5043747;28;20099;-77